Indian, Alaska
Current Conditions -  °F | °C
As of 2:53 PM on Saturday 25 Oct 2014 (Local Time) from PALH Reporting Station
Overcast Overcast  
Wind Chill: 35°   Ceiling: 5500
Heat Index: 35°   Visibility: 10mi
Dew Point: 25°   Wind: 3mph
Humidity: 67%   Direction: 340°NNW
Pressure: 29.86"   Gusts: NA
Location:  61.17°N, 149.95°W
Report Text: PALH 252253Z 34003KT 10SM OVC055 02/M04 A2986 RMK AO2 SLP114 T00171039
Loading
Personal Weather Stations






























Interactive Weather Map
Tropical Storm Tracking
New forecast layout! Learn more

10-Day Weather Forecast

Advertisements
Track Severe Weather on mobile